Time;durP1;ratioP1;P1;durP2;ratioP2;P2;SDS_P1;SDS_P2;PMS_P1;PMS_P2;Temp;Humidity;BMP_temperature;BMP_pressure;BME280_temperature;BME280_humidity;BME280_pressure;Samples;Min_cycle;Max_cycle;Signal;HPM_P1;HPM_P2
2022/10/18 00:01:40;;;;;;;34.97;11.48;;;;;;;12.71;100.00;102524.34;5050950;28;20034;-43
2022/10/18 00:04:06;;;;;;;24.52;10.65;;;;;;;12.68;100.00;102532.78;5051036;28;20040;-43
2022/10/18 00:06:31;;;;;;;23.10;10.80;;;;;;;12.64;100.00;102534.09;5051599;28;20041;-43
2022/10/18 00:08:56;;;;;;;30.85;10.43;;;;;;;12.60;100.00;102538.09;5050094;28;20045;-43
2022/10/18 00:11:22;;;;;;;27.58;10.27;;;;;;;12.58;100.00;102532.00;5050898;28;20117;-44
2022/10/18 00:13:47;;;;;;;30.50;9.73;;;;;;;12.55;100.00;102522.34;5050638;28;20032;-45
2022/10/18 00:16:15;;;;;;;32.30;10.95;;;;;;;12.49;100.00;102518.41;5050813;28;20025;-43
2022/10/18 00:18:40;;;;;;;32.08;11.38;;;;;;;12.46;100.00;102510.63;5050772;28;20035;-44
2022/10/18 00:21:12;;;;;;;35.13;9.88;;;;;;;12.43;100.00;102524.44;5050941;28;20455;-44
2022/10/18 00:23:38;;;;;;;28.45;10.40;;;;;;;12.38;100.00;102529.44;5047323;28;20078;-45
2022/10/18 00:26:08;;;;;;;27.27;10.82;;;;;;;12.33;100.00;102526.34;5049278;28;20021;-44
2022/10/18 00:28:34;;;;;;;35.75;10.82;;;;;;;12.30;100.00;102532.06;5050608;28;20082;-44
2022/10/18 00:31:30;;;;;;;30.23;10.18;;;;;;;12.26;100.00;102533.34;5050628;28;20032;-45
2022/10/18 00:33:57;;;;;;;32.40;10.63;;;;;;;12.21;100.00;102533.81;5044396;28;20144;-44
2022/10/18 00:36:24;;;;;;;23.52;11.00;;;;;;;12.19;100.00;102526.84;5050417;28;20408;-44
2022/10/18 00:38:50;;;;;;;31.77;10.18;;;;;;;12.15;100.00;102528.19;5050904;28;20039;-43
2022/10/18 00:41:18;;;;;;;28.42;10.70;;;;;;;12.11;100.00;102537.56;5050396;28;20029;-43
2022/10/18 00:43:56;;;;;;;23.27;9.90;;;;;;;12.05;100.00;102534.47;5049971;28;20052;-43
2022/10/18 00:46:22;;;;;;;26.25;9.88;;;;;;;12.01;100.00;102533.09;5050743;28;20105;-43
2022/10/18 00:48:48;;;;;;;30.95;9.98;;;;;;;11.99;100.00;102532.38;5050491;28;20025;-41
2022/10/18 00:51:14;;;;;;;25.33;10.23;;;;;;;11.93;100.00;102535.69;5049461;28;20427;-43
2022/10/18 00:53:39;;;;;;;27.73;9.25;;;;;;;11.90;100.00;102530.59;5049314;28;20329;-43
2022/10/18 00:56:05;;;;;;;24.65;9.43;;;;;;;11.84;100.00;102537.38;5049478;28;20142;-42
2022/10/18 00:58:30;;;;;;;38.50;10.55;;;;;;;11.83;100.00;102537.53;5050368;28;20539;-42
2022/10/18 01:00:56;;;;;;;26.98;9.25;;;;;;;11.81;100.00;102540.38;5049342;28;20028;-43
2022/10/18 01:03:21;;;;;;;18.88;8.18;;;;;;;11.79;100.00;102542.38;5050795;28;20025;-44
2022/10/18 01:05:47;;;;;;;26.50;9.60;;;;;;;11.77;100.00;102536.28;5048862;28;20380;-42
2022/10/18 01:08:28;;;;;;;28.75;8.98;;;;;;;11.74;100.00;102543.81;5050517;28;20072;-42
2022/10/18 01:11:24;;;;;;;29.25;8.88;;;;;;;11.72;100.00;102543.13;5050441;28;20094;-44
2022/10/18 01:14:01;;;;;;;35.00;8.88;;;;;;;11.68;100.00;102545.25;5050118;28;20033;-43
2022/10/18 01:16:42;;;;;;;23.10;8.48;;;;;;;11.67;100.00;102551.66;5048053;28;20337;-43
2022/10/18 01:19:19;;;;;;;30.73;8.80;;;;;;;11.64;100.00;102549.25;5049043;28;20025;-42
2022/10/18 01:22:02;;;;;;;19.08;7.80;;;;;;;11.61;100.00;102550.41;5052209;28;20029;-43
2022/10/18 01:24:44;;;;;;;21.13;8.40;;;;;;;11.59;100.00;102549.69;5044672;28;20025;-43
2022/10/18 01:27:32;;;;;;;16.48;8.55;;;;;;;11.56;100.00;102544.59;5053733;28;20542;-42
2022/10/18 01:30:16;;;;;;;29.65;8.57;;;;;;;11.54;100.00;102541.19;5051818;28;20033;-44
2022/10/18 01:32:46;;;;;;;28.13;8.02;;;;;;;11.50;100.00;102534.38;5053423;28;20113;-44
2022/10/18 01:35:15;;;;;;;22.65;8.07;;;;;;;11.52;100.00;102547.72;5052148;28;20037;-45
2022/10/18 01:37:42;;;;;;;24.10;8.07;;;;;;;11.52;100.00;102542.34;5052515;28;20036;-44
2022/10/18 01:40:08;;;;;;;27.45;8.25;;;;;;;11.53;100.00;102542.19;5052412;28;20064;-43
2022/10/18 01:42:34;;;;;;;35.28;8.95;;;;;;;11.50;100.00;102545.16;5053594;28;20063;-42
2022/10/18 01:45:00;;;;;;;25.45;8.70;;;;;;;11.45;100.00;102547.44;5053236;28;20033;-44
2022/10/18 01:47:26;;;;;;;23.33;7.97;;;;;;;11.45;100.00;102549.28;5042896;28;20048;-43
2022/10/18 01:50:01;;;;;;;24.65;8.20;;;;;;;11.40;100.00;102547.03;5053805;28;20033;-43
2022/10/18 01:52:26;;;;;;;25.48;7.80;;;;;;;11.38;100.00;102546.34;5053498;28;20033;-43
2022/10/18 01:54:53;;;;;;;17.73;7.38;;;;;;;11.37;100.00;102550.03;5052058;28;20056;-42
2022/10/18 01:57:23;;;;;;;24.15;8.05;;;;;;;11.37;100.00;102560.81;5052268;28;20029;-42
2022/10/18 02:00:03;;;;;;;28.38;8.70;;;;;;;11.34;100.00;102561.09;5051572;28;20116;-44
2022/10/18 02:03:03;;;;;;;26.48;8.43;;;;;;;11.31;100.00;102558.69;5051168;28;20405;-44
2022/10/18 02:08:10;;;;;;;25.23;8.95;;;;;;;11.29;100.00;102563.38;5032307;28;20107;-79
2022/10/18 02:10:39;;;;;;;30.05;9.00;;;;;;;11.25;100.00;102561.97;5033338;28;20658;-80
2022/10/18 02:13:05;;;;;;;27.08;8.35;;;;;;;11.21;100.00;102564.94;5033061;28;20435;-80
2022/10/18 02:15:38;;;;;;;30.45;8.27;;;;;;;11.17;100.00;102566.25;5016691;28;20042;-80
2022/10/18 02:18:07;;;;;;;23.63;8.80;;;;;;;11.19;100.00;102568.81;5016657;28;20426;-80
2022/10/18 02:20:33;;;;;;;30.23;8.70;;;;;;;11.18;100.00;102567.94;5033183;28;20033;-80
2022/10/18 02:22:59;;;;;;;24.75;8.75;;;;;;;11.18;100.00;102564.38;5033336;28;20025;-77
2022/10/18 02:25:28;;;;;;;29.92;8.75;;;;;;;11.17;100.00;102560.84;5033910;28;20196;-78
2022/10/18 02:27:53;;;;;;;22.30;8.35;;;;;;;11.16;100.00;102559.16;5016420;28;20021;-77
2022/10/18 02:30:23;;;;;;;31.65;9.00;;;;;;;11.15;100.00;102562.84;5018411;28;20488;-76
2022/10/18 02:33:03;;;;;;;28.65;9.02;;;;;;;11.11;100.00;102561.44;5036296;28;20030;-78
2022/10/18 02:35:32;;;;;;;29.05;8.52;;;;;;;11.11;100.00;102569.53;5040751;28;20040;-78
2022/10/18 02:37:58;;;;;;;33.30;8.55;;;;;;;11.10;100.00;102562.41;5030953;28;20045;-78
2022/10/18 02:40:24;;;;;;;31.98;9.63;;;;;;;11.05;100.00;102561.97;5038200;28;20029;-77
2022/10/18 02:42:55;;;;;;;30.80;8.48;;;;;;;11.02;100.00;102559.59;5054222;28;20086;-78
2022/10/18 02:45:21;;;;;;;25.10;8.70;;;;;;;11.00;100.00;102564.25;5050519;28;20033;-78
2022/10/18 02:47:46;;;;;;;27.52;8.05;;;;;;;10.98;100.00;102567.13;5034564;28;20023;-78
2022/10/18 02:50:12;;;;;;;27.90;8.77;;;;;;;10.96;100.00;102561.00;5034827;28;20117;-78
2022/10/18 02:52:37;;;;;;;24.85;8.65;;;;;;;10.94;100.00;102559.44;5034334;28;20026;-78
2022/10/18 02:55:04;;;;;;;33.60;8.70;;;;;;;10.96;100.00;102562.84;5032123;28;20025;-78
2022/10/18 02:57:29;;;;;;;31.13;8.75;;;;;;;10.92;100.00;102558.72;5015245;28;20159;-77
2022/10/18 02:59:54;;;;;;;22.45;8.82;;;;;;;10.89;100.00;102557.16;5033168;28;20049;-78
2022/10/18 03:02:20;;;;;;;34.10;9.18;;;;;;;10.87;100.00;102550.22;5031713;28;20393;-77
2022/10/18 03:04:45;;;;;;;24.67;9.10;;;;;;;10.82;100.00;102558.75;5013456;28;20101;-77
2022/10/18 03:07:11;;;;;;;28.95;9.05;;;;;;;10.79;100.00;102550.09;5013941;28;20096;-77
2022/10/18 03:09:36;;;;;;;28.13;8.70;;;;;;;10.77;100.00;102553.78;5031383;28;20064;-78
2022/10/18 03:12:02;;;;;;;32.83;9.18;;;;;;;10.71;100.00;102551.63;5031050;28;20469;-77
2022/10/18 03:14:27;;;;;;;30.90;9.30;;;;;;;10.70;100.00;102554.50;5030910;28;20461;-78
2022/10/18 03:16:52;;;;;;;35.03;9.48;;;;;;;10.67;100.00;102563.69;5032321;28;20416;-77
2022/10/18 03:19:18;;;;;;;34.83;9.32;;;;;;;10.65;100.00;102559.44;5031075;28;20034;-77
2022/10/18 03:21:43;;;;;;;37.95;9.57;;;;;;;10.64;100.00;102563.97;5032025;28;20033;-77
2022/10/18 03:24:09;;;;;;;42.70;10.43;;;;;;;10.62;100.00;102560.56;5031429;28;20028;-78
2022/10/18 03:26:34;;;;;;;30.90;8.68;;;;;;;10.63;100.00;102559.56;5030946;28;20459;-77
2022/10/18 03:28:59;;;;;;;30.88;8.77;;;;;;;10.63;100.00;102553.34;5030986;28;20108;-78
2022/10/18 03:31:25;;;;;;;39.28;8.95;;;;;;;10.62;100.00;102560.56;5032645;28;20022;-78
2022/10/18 03:33:50;;;;;;;39.58;9.38;;;;;;;10.59;100.00;102566.25;5032951;28;20048;-78
2022/10/18 03:36:16;;;;;;;35.40;9.65;;;;;;;10.58;100.00;102569.06;5032376;28;20029;-79
2022/10/18 03:38:41;;;;;;;36.08;8.68;;;;;;;10.57;100.00;102572.75;5031189;28;20041;-77
2022/10/18 03:41:07;;;;;;;44.75;9.30;;;;;;;10.56;100.00;102566.53;5030915;28;20026;-78
2022/10/18 03:43:33;;;;;;;56.65;9.45;;;;;;;10.54;100.00;102573.88;5030333;28;20053;-76
2022/10/18 03:45:59;;;;;;;39.47;9.38;;;;;;;10.49;100.00;102565.38;5032101;28;20041;-77
2022/10/18 03:48:24;;;;;;;36.10;9.13;;;;;;;10.48;100.00;102569.06;5031225;28;20041;-79
2022/10/18 03:50:49;;;;;;;33.08;8.80;;;;;;;10.47;100.00;102567.34;5032104;28;20371;-78
2022/10/18 03:53:15;;;;;;;39.28;9.65;;;;;;;10.44;100.00;102562.25;5032189;28;20061;-78
2022/10/18 03:55:40;;;;;;;41.83;9.30;;;;;;;10.43;100.00;102556.03;5030438;28;20029;-77
2022/10/18 03:58:05;;;;;;;30.30;8.38;;;;;;;10.44;100.00;102556.84;5031723;28;20021;-76
2022/10/18 04:00:31;;;;;;;37.30;9.60;;;;;;;10.41;100.00;102557.16;5030145;28;20079;-77
2022/10/18 04:02:56;;;;;;;46.53;9.10;;;;;;;10.38;100.00;102557.44;5032209;28;20036;-77
2022/10/18 04:05:23;;;;;;;42.30;9.95;;;;;;;10.36;100.00;102562.94;5032655;28;20033;-77
2022/10/18 04:07:48;;;;;;;45.50;10.23;;;;;;;10.36;100.00;102572.84;5031486;28;20046;-77
2022/10/18 04:10:14;;;;;;;33.22;10.52;;;;;;;10.36;100.00;102576.41;5030805;28;20120;-77
2022/10/18 04:12:39;;;;;;;33.70;9.15;;;;;;;10.36;100.00;102562.09;5037430;28;20045;-76
2022/10/18 04:15:05;;;;;;;42.25;9.40;;;;;;;10.35;100.00;102552.28;5044397;28;20029;-76
2022/10/18 04:17:30;;;;;;;23.88;8.43;;;;;;;10.36;100.00;102551.31;5041729;28;20080;-78
2022/10/18 04:19:56;;;;;;;38.42;9.77;;;;;;;10.33;100.00;102544.38;5037474;28;20021;-77
2022/10/18 04:22:21;;;;;;;34.42;9.23;;;;;;;10.29;100.00;102559.09;5038593;28;20105;-78
2022/10/18 04:24:46;;;;;;;48.05;10.02;;;;;;;10.28;100.00;102552.84;5031971;28;20037;-77
2022/10/18 04:27:12;;;;;;;32.88;9.20;;;;;;;10.24;100.00;102554.09;5032496;28;20034;-77
2022/10/18 04:29:37;;;;;;;49.75;9.98;;;;;;;10.23;100.00;102560.47;5031531;28;20025;-78
2022/10/18 04:32:02;;;;;;;35.50;9.55;;;;;;;10.23;100.00;102571.22;5030787;28;20024;-78
2022/10/18 04:34:28;;;;;;;39.35;9.27;;;;;;;10.24;100.00;102572.06;5032061;28;20039;-78
2022/10/18 04:36:53;;;;;;;37.38;9.30;;;;;;;10.26;100.00;102573.63;5032092;28;20068;-78
2022/10/18 04:39:18;;;;;;;41.17;9.82;;;;;;;10.26;100.00;102572.78;5031612;28;20188;-76
2022/10/18 04:41:44;;;;;;;46.10;9.95;;;;;;;10.28;100.00;102574.38;5030599;28;20425;-77
2022/10/18 04:44:10;;;;;;;36.67;10.40;;;;;;;10.27;100.00;102575.38;5030419;28;20049;-77
2022/10/18 04:46:36;;;;;;;35.03;10.00;;;;;;;10.26;100.00;102572.78;5031750;28;20021;-78
2022/10/18 04:49:02;;;;;;;53.88;11.20;;;;;;;10.24;100.00;102586.41;5029599;28;20105;-77
2022/10/18 04:51:28;;;;;;;30.60;9.82;;;;;;;10.24;100.00;102578.31;5030079;28;20041;-76
2022/10/18 04:53:54;;;;;;;50.97;11.20;;;;;;;10.24;100.00;102583.72;5030042;28;20029;-76
2022/10/18 04:56:19;;;;;;;30.17;10.05;;;;;;;10.22;100.00;102591.06;5032917;28;20033;-76
2022/10/18 04:58:44;;;;;;;41.58;10.20;;;;;;;10.20;100.00;102589.50;5034867;28;20106;-77
2022/10/18 05:01:10;;;;;;;41.05;9.95;;;;;;;10.18;100.00;102595.00;5035399;28;20034;-77
2022/10/18 05:03:35;;;;;;;41.38;10.25;;;;;;;10.18;100.00;102589.63;5035712;28;20061;-78
2022/10/18 05:06:00;;;;;;;39.22;10.10;;;;;;;10.16;100.00;102591.59;5023672;28;20496;-77
2022/10/18 05:08:26;;;;;;;33.30;9.82;;;;;;;10.14;100.00;102587.31;5022272;28;20105;-76
2022/10/18 05:10:51;;;;;;;36.85;9.95;;;;;;;10.13;100.00;102591.00;5020757;28;20033;-77
2022/10/18 05:13:16;;;;;;;45.95;10.00;;;;;;;10.09;100.00;102599.38;5035225;28;20021;-77
2022/10/18 05:15:42;;;;;;;37.53;9.63;;;;;;;10.10;100.00;102602.91;5017706;28;20034;-75
2022/10/18 05:18:07;;;;;;;28.95;9.20;;;;;;;10.08;100.00;102615.63;5033831;28;20060;-76
2022/10/18 05:20:32;;;;;;;38.38;10.10;;;;;;;10.07;100.00;102612.09;5033438;28;20053;-77
2022/10/18 05:22:58;;;;;;;33.10;10.07;;;;;;;10.07;100.00;102611.25;5034731;28;20215;-76
2022/10/18 05:25:23;;;;;;;36.58;9.93;;;;;;;10.04;100.00;102598.91;5034872;28;20040;-77
2022/10/18 05:27:49;;;;;;;29.45;9.07;;;;;;;10.04;100.00;102593.53;5034990;28;20025;-76
2022/10/18 05:30:14;;;;;;;25.27;8.88;;;;;;;10.03;100.00;102596.34;5034955;28;20111;-77
2022/10/18 05:32:39;;;;;;;30.33;9.43;;;;;;;9.98;100.00;102604.84;5035047;28;20037;-78
2022/10/18 05:35:05;;;;;;;33.17;9.02;;;;;;;9.98;100.00;102602.16;5035026;28;20029;-78
2022/10/18 05:37:31;;;;;;;35.90;9.10;;;;;;;10.00;100.00;102610.06;5037434;28;20021;-77
2022/10/18 05:39:56;;;;;;;34.67;8.85;;;;;;;9.99;100.00;102613.75;5039184;28;20048;-78
2022/10/18 05:42:22;;;;;;;31.63;9.32;;;;;;;9.99;100.00;102616.44;5032706;28;20025;-76
2022/10/18 05:44:47;;;;;;;31.58;9.48;;;;;;;10.00;100.00;102610.91;5014593;28;20038;-77
2022/10/18 05:47:12;;;;;;;28.92;9.50;;;;;;;9.98;100.00;102620.09;5039013;28;20123;-77
2022/10/18 05:49:38;;;;;;;34.35;10.32;;;;;;;9.95;100.00;102625.75;5037772;28;20049;-77
2022/10/18 05:52:03;;;;;;;36.70;9.20;;;;;;;9.92;100.00;102631.41;5023774;28;20053;-76
2022/10/18 05:54:28;;;;;;;39.65;10.48;;;;;;;9.89;100.00;102619.09;5020911;28;20033;-78
2022/10/18 05:56:54;;;;;;;28.23;9.50;;;;;;;9.91;100.00;102609.06;5015461;28;20108;-78
2022/10/18 05:59:19;;;;;;;34.30;10.55;;;;;;;9.88;100.00;102618.25;5036321;28;20056;-78
2022/10/18 06:01:44;;;;;;;37.45;9.70;;;;;;;9.87;100.00;102621.94;5048463;28;20025;-78
2022/10/18 06:04:10;;;;;;;32.17;10.18;;;;;;;9.88;100.00;102641.59;5055449;28;20025;-78
2022/10/18 06:06:36;;;;;;;36.95;9.98;;;;;;;9.87;100.00;102643.44;5050342;28;20060;-77
2022/10/18 06:09:02;;;;;;;38.55;11.10;;;;;;;9.89;100.00;102649.50;5033132;28;20144;-77
2022/10/18 06:11:28;;;;;;;32.58;9.77;;;;;;;9.88;100.00;102652.34;5016542;28;20022;-77
2022/10/18 06:13:53;;;;;;;28.40;10.13;;;;;;;9.85;100.00;102649.94;5027231;28;20124;-78
2022/10/18 06:16:20;;;;;;;31.75;9.98;;;;;;;9.83;100.00;102655.44;5053964;28;20096;-78
2022/10/18 06:18:48;;;;;;;47.38;11.35;;;;;;;9.83;100.00;102663.50;5052430;28;20081;-78
2022/10/18 06:21:13;;;;;;;30.38;9.70;;;;;;;9.84;100.00;102661.66;5021642;28;20032;-79
2022/10/18 06:23:39;;;;;;;37.35;10.55;;;;;;;9.86;100.00;102665.06;5034230;28;20025;-78
2022/10/18 06:26:06;;;;;;;36.88;11.23;;;;;;;9.86;100.00;102662.38;5034035;28;20025;-78
2022/10/18 06:28:34;;;;;;;51.67;11.27;;;;;;;9.86;100.00;102668.63;5041442;28;20052;-78
2022/10/18 06:30:59;;;;;;;32.63;10.18;;;;;;;9.85;100.00;102669.63;5053304;28;20282;-78
2022/10/18 06:33:25;;;;;;;47.72;10.52;;;;;;;9.88;100.00;102681.94;5045170;28;20021;-78
2022/10/18 06:36:10;;;;;;;38.47;11.05;;;;;;;9.86;100.00;102675.84;5045905;28;20029;-78
2022/10/18 06:38:36;;;;;;;45.17;10.45;;;;;;;9.86;100.00;102676.69;5032974;28;20120;-79
2022/10/18 06:41:02;;;;;;;46.15;11.77;;;;;;;9.88;100.00;102682.78;5033088;28;20173;-78
2022/10/18 06:43:28;;;;;;;35.75;10.48;;;;;;;9.92;100.00;102688.75;5030722;28;20017;-78
2022/10/18 06:45:54;;;;;;;37.22;11.27;;;;;;;9.95;100.00;102687.63;5019305;28;20042;-80
2022/10/18 06:48:20;;;;;;;39.20;10.00;;;;;;;10.03;100.00;102693.19;5029169;28;20083;-79
2022/10/18 06:50:59;;;;;;;39.42;10.90;;;;;;;10.14;100.00;102694.94;5034779;28;20061;-78
2022/10/18 06:53:27;;;;;;;35.75;11.40;;;;;;;10.23;100.00;102686.09;5050837;28;20024;-76
2022/10/18 06:56:01;;;;;;;37.08;9.60;;;;;;;10.33;100.00;102690.56;5043008;28;20051;-77
2022/10/18 06:58:27;;;;;;;39.67;10.23;;;;;;;10.40;100.00;102692.69;5032978;28;20396;-77
2022/10/18 07:00:53;;;;;;;40.97;10.10;;;;;;;10.42;100.00;102698.81;5032506;28;20025;-77
2022/10/18 07:03:20;;;;;;;32.10;9.95;;;;;;;10.46;100.00;102702.94;5014502;28;20453;-77
2022/10/18 07:05:46;;;;;;;38.43;9.87;;;;;;;10.49;100.00;102699.97;5031949;28;20497;-76
2022/10/18 07:08:11;;;;;;;32.15;9.10;;;;;;;10.52;100.00;102703.22;5035461;28;20283;-78
2022/10/18 07:10:37;;;;;;;31.10;9.77;;;;;;;10.57;100.00;102700.16;5051995;28;20463;-78
2022/10/18 07:13:02;;;;;;;37.45;9.93;;;;;;;10.62;100.00;102700.59;5038053;28;20399;-77
2022/10/18 07:15:28;;;;;;;30.42;11.18;;;;;;;10.77;100.00;102704.59;5031300;28;20029;-77
2022/10/18 07:17:53;;;;;;;38.10;9.13;;;;;;;10.96;100.00;102711.03;5028127;28;20461;-77
2022/10/18 07:20:20;;;;;;;39.83;9.02;;;;;;;11.07;100.00;102723.53;5026999;28;20440;-77
2022/10/18 07:22:45;;;;;;;41.15;10.15;;;;;;;11.22;100.00;102714.06;5026178;28;20563;-78
2022/10/18 07:25:10;;;;;;;31.45;8.23;;;;;;;11.34;100.00;102720.16;5027155;28;20029;-79
2022/10/18 07:27:41;;;;;;;34.35;9.30;;;;;;;11.39;100.00;102720.56;5026135;28;20030;-78
2022/10/18 07:30:07;;;;;;;32.38;8.63;;;;;;;11.42;100.00;102736.47;5028196;28;20037;-78
2022/10/18 07:32:33;;;;;;;38.50;9.65;;;;;;;11.54;100.00;102746.13;5026680;28;20517;-77
2022/10/18 07:34:58;;;;;;;36.20;9.70;;;;;;;12.11;100.00;102743.53;5028338;28;20072;-79
2022/10/18 07:37:23;;;;;;;34.70;8.95;;;;;;;13.16;100.00;102745.06;5030377;28;20493;-79
2022/10/18 07:39:49;;;;;;;28.13;6.75;;;;;;;14.27;100.00;102753.69;5032570;28;20478;-80
2022/10/18 07:42:14;;;;;;;34.83;8.00;;;;;;;15.03;100.00;102766.41;5032158;28;20025;-79
2022/10/18 07:44:40;;;;;;;36.95;7.60;;;;;;;15.90;100.00;102744.34;5033808;28;20026;-79
2022/10/18 07:47:05;;;;;;;36.58;7.55;;;;;;;16.95;100.00;102711.63;5052319;28;20445;-79
2022/10/18 07:49:30;;;;;;;35.00;6.88;;;;;;;17.93;90.99;102724.50;5017546;28;20164;-78
2022/10/18 07:51:55;;;;;;;27.30;6.50;;;;;;;18.74;85.59;102720.00;5032324;28;20029;-79
2022/10/18 07:54:21;;;;;;;23.90;6.80;;;;;;;19.30;79.81;102725.75;5032376;28;20661;-79
2022/10/18 07:56:46;;;;;;;24.58;6.50;;;;;;;19.86;76.34;102716.81;5032243;28;20026;-79
2022/10/18 07:59:12;;;;;;;32.03;5.80;;;;;;;20.18;73.03;102726.31;5032181;28;20036;-79
2022/10/18 08:01:37;;;;;;;21.25;6.43;;;;;;;20.64;71.87;102735.00;5031863;28;20481;-80
2022/10/18 08:04:02;;;;;;;28.58;6.45;;;;;;;21.06;70.26;102731.16;5031775;28;20034;-79
2022/10/18 08:06:28;;;;;;;30.00;5.53;;;;;;;21.38;68.26;102739.69;5029809;28;20046;-80
2022/10/18 08:08:53;;;;;;;18.45;5.75;;;;;;;21.65;66.97;102735.94;5033576;28;20036;-81
2022/10/18 08:11:21;;;;;;;26.08;5.95;;;;;;;22.01;65.88;102731.09;5030508;28;20079;-80
2022/10/18 08:13:46;;;;;;;28.10;5.40;;;;;;;22.43;64.73;102729.75;5029128;28;20032;-80
2022/10/18 08:16:13;;;;;;;29.95;5.18;;;;;;;22.65;63.36;102730.34;5037211;28;20112;-81
2022/10/18 08:18:39;;;;;;;23.95;4.72;;;;;;;22.88;62.08;102729.84;5047130;28;20037;-80
2022/10/18 08:21:07;;;;;;;22.25;4.95;;;;;;;23.00;61.89;102722.59;5030474;28;20036;-81
2022/10/18 08:23:32;;;;;;;20.48;4.45;;;;;;;23.09;61.22;102725.94;5017418;28;20032;-81
2022/10/18 08:26:06;;;;;;;13.15;4.03;;;;;;;23.58;61.07;102729.00;5031554;28;20034;-81
2022/10/18 08:28:32;;;;;;;20.77;4.47;;;;;;;23.57;58.45;102732.81;5035681;28;20077;-81
2022/10/18 08:31:01;;;;;;;23.38;4.78;;;;;;;23.24;58.94;102739.38;5037469;28;20033;-81
2022/10/18 08:33:27;;;;;;;18.15;4.30;;;;;;;23.88;59.46;102745.69;5030635;28;20167;-81
2022/10/18 08:35:57;;;;;;;26.27;5.13;;;;;;;23.89;56.72;102736.38;5029743;28;20053;-79
2022/10/18 08:38:23;;;;;;;25.55;4.88;;;;;;;23.81;55.33;102731.16;5034392;28;20544;-79
2022/10/18 08:40:49;;;;;;;19.40;4.35;;;;;;;23.93;54.38;102734.00;5050659;28;20029;-80
2022/10/18 08:43:37;;;;;;;21.23;4.60;;;;;;;24.67;53.78;102749.56;5044910;28;20175;-79
2022/10/18 08:46:03;;;;;;;21.17;4.00;;;;;;;25.00;50.60;102748.28;5024272;28;20661;-79
2022/10/18 08:48:36;;;;;;;14.57;3.45;;;;;;;24.73;49.75;102747.81;5027427;28;20040;-80
2022/10/18 08:51:03;;;;;;;17.08;4.38;;;;;;;24.56;51.33;102741.22;5027426;28;20045;-80
2022/10/18 08:53:34;;;;;;;14.60;3.60;;;;;;;24.67;51.80;102744.06;5028895;28;20034;-80
2022/10/18 08:56:05;;;;;;;21.73;3.83;;;;;;;23.71;51.07;102736.28;5039663;28;20040;-79
2022/10/18 08:58:32;;;;;;;20.42;3.90;;;;;;;23.91;53.21;102741.63;5032354;28;20037;-80
2022/10/18 09:01:28;;;;;;;15.43;3.30;;;;;;;23.69;52.60;102735.66;5041786;28;20032;-80
2022/10/18 09:04:02;;;;;;;17.05;3.13;;;;;;;22.70;52.88;102735.19;5043933;28;20013;-80
2022/10/18 09:06:43;;;;;;;15.73;3.65;;;;;;;21.97;55.67;102736.16;5035915;28;20308;-79
2022/10/18 09:09:08;;;;;;;21.98;3.72;;;;;;;21.96;57.24;102736.34;5034714;28;20025;-79
2022/10/18 09:11:40;;;;;;;10.45;2.28;;;;;;;22.26;53.67;102740.38;5031709;28;20101;-79
2022/10/18 09:14:25;;;;;;;20.17;2.67;;;;;;;22.96;52.06;102742.44;5013359;28;20033;-77
2022/10/18 09:16:56;;;;;;;15.15;2.72;;;;;;;22.66;51.93;102747.66;5031318;28;20564;-79
2022/10/18 09:20:00;;;;;;;17.65;3.05;;;;;;;22.43;52.76;102754.47;5028895;28;20017;-79
2022/10/18 09:22:49;;;;;;;14.57;2.97;;;;;;;22.10;52.29;102755.34;5028716;28;20041;-79
2022/10/18 09:25:36;;;;;;;12.05;2.72;;;;;;;21.79;55.40;102747.75;5034122;28;20484;-79
2022/10/18 09:28:24;;;;;;;14.52;2.88;;;;;;;21.68;55.03;102756.63;5028763;28;20064;-79
2022/10/18 09:31:30;;;;;;;18.92;2.70;;;;;;;21.88;51.83;102762.09;5030819;28;20021;-79
2022/10/18 09:34:00;;;;;;;13.27;2.30;;;;;;;21.45;54.22;102763.31;5015482;28;20045;-80
2022/10/18 09:36:34;;;;;;;11.75;2.33;;;;;;;21.10;53.51;102767.22;5039088;28;20029;-79
2022/10/18 09:39:02;;;;;;;17.23;2.30;;;;;;;20.58;54.37;102769.50;5049457;28;20052;-79
2022/10/18 09:41:33;;;;;;;16.10;2.85;;;;;;;20.24;58.02;102771.13;5051345;28;20055;-80
2022/10/18 09:44:13;;;;;;;18.67;3.80;;;;;;;19.99;56.19;102772.63;5054310;28;20525;-79
2022/10/18 09:46:42;;;;;;;9.95;2.00;;;;;;;19.73;56.43;102771.34;5036786;28;20029;-80
2022/10/18 09:49:16;;;;;;;13.77;2.63;;;;;;;19.51;56.58;102767.75;5012952;28;20037;-78
2022/10/18 09:51:42;;;;;;;13.25;2.30;;;;;;;19.34;58.57;102778.06;5015573;28;20030;-79
2022/10/18 09:54:33;;;;;;;12.60;1.77;;;;;;;19.16;59.99;102778.50;5027533;28;20104;-79
2022/10/18 09:57:09;;;;;;;14.10;1.77;;;;;;;18.98;61.25;102781.63;5033352;28;20101;-79
2022/10/18 09:59:42;;;;;;;10.30;2.25;;;;;;;18.88;62.38;102783.81;5046477;28;20021;-79
2022/10/18 10:02:18;;;;;;;10.43;2.15;;;;;;;18.78;60.21;102786.00;5048848;28;20385;-79
2022/10/18 10:04:44;;;;;;;14.48;1.80;;;;;;;18.76;61.81;102786.16;5053768;28;20090;-79
2022/10/18 10:07:28;;;;;;;8.13;1.60;;;;;;;18.80;61.10;102789.34;5053412;28;20052;-79
2022/10/18 10:10:14;;;;;;;10.40;1.20;;;;;;;18.66;60.31;102791.03;5036572;28;20030;-79
2022/10/18 10:12:40;;;;;;;15.47;1.57;;;;;;;18.71;58.68;102785.84;5034651;28;20025;-79
2022/10/18 10:15:26;;;;;;;11.70;1.70;;;;;;;18.72;60.03;102786.69;5033938;28;20372;-77
2022/10/18 10:18:03;;;;;;;10.63;1.60;;;;;;;18.79;60.60;102793.13;5033922;28;20039;-79
2022/10/18 10:20:44;;;;;;;15.07;2.00;;;;;;;18.97;59.33;102793.59;5033495;28;20025;-79
2022/10/18 10:23:35;;;;;;;10.98;1.73;;;;;;;19.02;60.25;102793.03;5035248;28;20053;-79
2022/10/18 10:26:03;;;;;;;5.57;1.48;;;;;;;19.34;59.85;102797.19;5054098;28;20413;-78
2022/10/18 10:28:30;;;;;;;13.52;2.15;;;;;;;19.42;59.45;102798.94;5053223;28;20473;-79
2022/10/18 10:31:20;;;;;;;9.40;1.40;;;;;;;19.55;58.78;102795.50;5054080;28;20032;-77
2022/10/18 10:33:46;;;;;;;9.77;1.52;;;;;;;19.48;59.83;102789.97;5060132;28;20028;-78
2022/10/18 10:36:19;;;;;;;14.75;1.70;;;;;;;19.42;57.07;102794.31;5062739;28;20029;-78
2022/10/18 10:38:45;;;;;;;6.47;1.30;;;;;;;19.47;56.97;102808.25;5051104;28;20044;-80
2022/10/18 10:41:19;;;;;;;12.98;1.63;;;;;;;19.41;57.81;102809.03;5033909;28;20035;-79
2022/10/18 10:43:44;;;;;;;8.18;1.60;;;;;;;19.27;56.72;102809.91;5030663;28;20113;-80
2022/10/18 10:46:18;;;;;;;12.10;2.13;;;;;;;19.24;58.31;102807.56;5028051;28;20093;-78
2022/10/18 10:48:53;;;;;;;9.18;1.63;;;;;;;19.08;56.81;102814.09;5029831;28;20100;-81
2022/10/18 10:51:30;;;;;;;16.25;1.95;;;;;;;18.83;57.22;102817.13;5031932;28;20025;-80
2022/10/18 10:54:01;;;;;;;11.90;1.50;;;;;;;18.80;58.56;102827.53;5032322;28;20248;-78
2022/10/18 10:56:29;;;;;;;14.40;1.52;;;;;;;18.71;58.07;102823.19;5030274;28;20040;-78
2022/10/18 10:58:59;;;;;;;15.10;1.80;;;;;;;18.64;57.88;102818.50;5033193;28;20036;-78
2022/10/18 11:01:30;;;;;;;13.32;1.77;;;;;;;18.46;57.78;102820.75;5029022;28;20132;-79
2022/10/18 11:03:59;;;;;;;9.65;1.90;;;;;;;18.37;57.36;102824.56;5032430;28;20073;-78
2022/10/18 11:06:37;;;;;;;10.25;1.77;;;;;;;18.25;57.74;102832.38;5012385;28;20041;-79
2022/10/18 11:09:03;;;;;;;;;;;;;;;18.23;59.50;102828.13;5032035;28;20129;-79
2022/10/18 11:11:32;;;;;;;15.48;2.55;;;;;;;18.14;58.62;102828.22;5031358;28;19913;-78
2022/10/18 11:14:16;;;;;;;17.48;2.28;;;;;;;18.22;59.04;102819.13;5029676;28;20075;-77
2022/10/18 11:16:54;;;;;;;7.05;1.20;;;;;;;18.21;56.97;102828.31;5030754;28;20036;-78
2022/10/18 11:19:33;;;;;;;9.32;1.55;;;;;;;18.20;56.20;102832.91;5030702;28;20036;-78
2022/10/18 11:22:01;;;;;;;6.38;1.42;;;;;;;18.24;57.47;102821.63;5031134;28;20040;-78
2022/10/18 11:24:27;;;;;;;8.90;1.55;;;;;;;18.24;55.66;102825.22;5032428;28;20029;-77